Nearby METAR Reports

 

KSEE - San Diego/Santee, California, USA
Distance from station: E 4mi, 6km
Updated: Sun, 28-Feb-2021 4:47pm PST
Clear
Clear
 Wind from varies
Wind: varies 10 mph , 17 km/h
Temperature: 70°F , 21°C
Dew Point: -0°F , -18°C
Humidity: 6%
Barometer: 30.10 inHg , 1019.3 hPa
Clouds: Clear
Visibility: 10 miles , 16 km
2021/03/01 00:47 KSEE 010047Z VRB09KT 10SM SKC 21/M18 A3010
KMYF - San Diego/Mntgmy, California, USA
Distance from station: W 6mi, 10km
Updated: Sun, 28-Feb-2021 4:53pm PST
Clear
Clear
 Wind from WNW
Wind: WNW 9 mph , 15 km/h
Temperature: 64°F , 18°C
Dew Point: 39°F , 4°C
Humidity: 40%
Barometer: 30.12 inHg , 1020 hPa
Clouds: Clear
Visibility: 10 miles , 16 km
2021/03/01 00:53 KMYF 010053Z 29008KT 10SM CLR 18/04 A3012 RMK AO2 SLP197 T01830039
 
KNKX - Miramar Nas/San, California, USA
Distance from station: WNW 7mi, 11km
Updated: Sun, 28-Feb-2021 4:55pm PST
Clear
Clear
 Wind from W
Wind: W 8 mph , 13 km/h
Temperature: 64°F , 18°C
Dew Point: 37°F , 3°C
Humidity: 37%
Barometer: 30.11 inHg , 1019.6 hPa
Clouds: Clear
Visibility: 10 miles , 16 km
2021/03/01 00:55 KNKX 010055Z 26007KT 10SM CLR 18/03 A3011 RMK AO2 SLP194 T01830028 $
KSAN - San Diego, California, USA
Distance from station: WSW 11mi, 17km
Updated: Sun, 28-Feb-2021 4:51pm PST
Few Clouds
Few Clouds
 Wind from NW
Wind: NW 10 mph , 17 km/h
Temperature: 66°F , 19°C
Dew Point: 45°F , 7°C
Humidity: 46%
Barometer: 30.13 inHg , 1020.3 hPa
Clouds: Few Clouds
Visibility: 10 miles , 16 km
Cloud details: Few Clouds 25000 ft
2021/03/01 00:51 KSAN 010051Z 31009KT 10SM FEW250 19/07 A3013 RMK AO2 SLP203 T01890067
 
KNZY - North Island Nas, California, USA
Distance from station: SW 13mi, 22km
Updated: Sun, 28-Feb-2021 4:52pm PST
Partly cloudy
Partly cloudy
 Wind from NW
Wind: NW 13 mph , 20 km/h
Temperature: 64°F , 18°C
Dew Point: 43°F , 6°C
Humidity: 46%
Barometer: 30.11 inHg , 1019.6 hPa
Clouds: Partly cloudy
Visibility: 10 miles , 16 km
Cloud details: Partly cloudy 25000 ft
2021/03/01 00:52 KNZY 010052Z 32011KT 10SM SCT250 18/06 A3011 RMK AO2 SLP196 T01780056
KRNM - Ramona, California, USA
Distance from station: NNE 16mi, 26km
Updated: Sun, 28-Feb-2021 4:53pm PST
Clear
Clear
 Wind from E
Wind: E 15 mph , 24 km/h
Temperature: 63°F , 17°C
Dew Point: 7°F , -14°C
Humidity: 11%
Barometer: 30.13 inHg , 1020.3 hPa
Clouds: Clear
Visibility: 10 miles , 16 km
2021/03/01 00:53 KRNM 010053Z AUTO 09013KT 10SM CLR 17/M14 A3013 RMK AO2 SLP197 T01671139
 
KSDM - San Diego/Brown, California, USA
Distance from station: S 16mi, 26km
Updated: Sun, 28-Feb-2021 4:53pm PST
Clear
Clear
 Wind from W
Wind: W 9 mph , 15 km/h
Temperature: 64°F , 18°C
Dew Point: 30°F , -1°C
Humidity: 28%
Barometer: 30.12 inHg , 1020 hPa
Clouds: Clear
Visibility: 10 miles , 16 km
2021/03/01 00:53 KSDM 010053Z 27008KT 10SM CLR 18/M01 A3012 RMK AO2 SLP197 T01781011
KNRS - Imperial Beach, California, USA
Distance from station: SSW 18mi, 29km
Updated: Sun, 28-Feb-2021 4:56pm PST
Clear
Clear
 
Barometer: 30.13 inHg , 1020.3 hPa
Clouds: Clear
Visibility: 10 miles , 16 km
2021/03/01 00:56 KNRS 010056Z AUTO 10SM CLR A3013 RMK AO2 SLP204 $
 
MMTJ - Tijuana Intl Arp, Mexico
Distance from station: S 20mi, 32km
Updated: Sun, 28-Feb-2021 4:41pm PST
Clear
Clear
 Wind from ENE
Wind: ENE 24 mph , 39 km/h
Temperature: 68°F , 20°C
Dew Point: 1°F , -17°C
Humidity: 7%
Barometer: 30.14 inHg , 1020.7 hPa
Clouds: Clear
Visibility: 8 miles , 13 km
2021/03/01 00:41 MMTJ 010041Z 06021KT 8SM SKC 20/M17 A3014 RMK HZY
KCRQ - Carlsbad, California, USA
Distance from station: NW 26mi, 43km
Updated: Sun, 28-Feb-2021 4:53pm PST
Clear
Clear
 Wind from WSW
Wind: WSW 3 mph , 6 km/h
Temperature: 66°F , 19°C
Dew Point: 30°F , -1°C
Humidity: 26%
Barometer: 30.10 inHg , 1019.3 hPa
Clouds: Clear
Visibility: 10 miles , 16 km
2021/03/01 00:53 KCRQ 010053Z 25003KT 10SM CLR 19/M01 A3010 RMK AO2 SLP191 T01941006
 
KOKB - Oceanside, California, USA
Distance from station: NW 33mi, 54km
Updated: Sun, 28-Feb-2021 4:52pm PST
Clear
Clear
 Wind from WNW
Wind: WNW 9 mph , 15 km/h
Temperature: 66°F , 19°C
Dew Point: 30°F , -1°C
Humidity: 26%
Barometer: 30.09 inHg , 1019 hPa
Clouds: Clear
Visibility: 10 miles , 16 km
2021/03/01 00:52 KOKB 010052Z AUTO 30008KT 10SM CLR 19/M01 A3009 RMK AO2 SLP188 T01891011
KCZZ - Campo, California, USA
Distance from station: ESE 35mi, 56km
Updated: Mon, 26-Oct-2020 8:52am PDT
NOT Current

 Wind from NE
Wind: NE 14 mph , 22 km/h, Gust: 20 mph , 31 km/h
Temperature: 48°F , 9°C
Wind Chill: 42°F , 6°C
Dew Point: 27°F , -3°C
Humidity: 43%
Barometer: 29.99 inHg , 1015.6 hPa
2020/10/26 15:52 KCZZ 261552Z AUTO 05012G17KT 09/M03 A2999 RMK AO1 SLP140 T00891028
 
KNFG - Camp Pendleton, California, USA
Distance from station: NNW 37mi, 59km
Updated: Sun, 28-Feb-2021 4:55pm PST
Clear
Clear
 Wind from NE
Wind: NE 10 mph , 17 km/h
Temperature: 75°F , 24°C
Dew Point: -9°F , -23°C
Humidity: 3%
Barometer: 30.09 inHg , 1019 hPa
Clouds: Clear
Visibility: 10 miles , 16 km
2021/03/01 00:55 KNFG 010055Z AUTO 04009KT 10SM CLR 24/M23 A3009 RMK AO2 SLP188 T02391228
KRIV - Riverside/March, California, USA
Distance from station: N 74mi, 119km
Updated: Sun, 28-Feb-2021 4:58pm PST
Clear
Clear
 Wind from ENE
Wind: ENE 10 mph , 17 km/h
Temperature: 61°F , 16°C
Dew Point: -0°F , -18°C
Humidity: 8%
Barometer: 30.15 inHg , 1021 hPa
Clouds: Clear
Visibility: 10 miles , 16 km
2021/03/01 00:58 KRIV 010058Z AUTO 07009KT 10SM CLR 16/M18 A3015 RMK AO2 SLP210 T01631181
 
KTRM - Thermal/Palm Spg, California, USA
Distance from station: NE 75mi, 121km
Updated: Sun, 28-Feb-2021 4:52pm PST
Clear
Clear
 Wind from W
Wind: W 8 mph , 13 km/h
Temperature: 66°F , 19°C
Dew Point: -0°F , -18°C
Humidity: 7%
Barometer: 30.22 inHg , 1023.4 hPa
Clouds: Clear
Visibility: 10 miles , 16 km
2021/03/01 00:52 KTRM 010052Z AUTO 28007KT 10SM CLR 19/M18 A3022 RMK AO2 SLP233 T01941183
KPSP - Palm Springs, California, USA
Distance from station: NNE 76mi, 122km
Updated: Sun, 28-Feb-2021 4:53pm PST
Clear
Clear
 Wind from NNE
Wind: NNE 3 mph , 6 km/h
Temperature: 66°F , 19°C
Dew Point: 1°F , -17°C
Humidity: 7%
Barometer: 30.24 inHg , 1024 hPa
Clouds: Clear
Visibility: 10 miles , 16 km
2021/03/01 00:53 KPSP 010053Z 03003KT 10SM CLR 19/M17 A3024 RMK AO2 SLP240 T01941167
 
KSNA - Costa Mesa, California, USA
Distance from station: NW 76mi, 123km
Updated: Sun, 28-Feb-2021 4:53pm PST
Clear
Clear
 Wind from WSW
Wind: WSW 7 mph , 11 km/h
Temperature: 68°F , 20°C
Dew Point: 25°F , -4°C
Humidity: 20%
Barometer: 30.11 inHg , 1019.6 hPa
Clouds: Clear
Visibility: 10 miles , 16 km
2021/03/01 00:53 KSNA 010053Z 24006KT 10SM CLR 20/M04 A3011 RMK AO2 SLP195 T02001044
KNJK - El Centro Naf, California, USA
Distance from station: E 79mi, 127km
Updated: Sun, 28-Feb-2021 4:56pm PST
Clear
Clear
 Wind from NNW
Wind: NNW 9 mph , 15 km/h
Temperature: 66°F , 19°C
Dew Point: -6°F , -21°C
Humidity: 5%
Barometer: 30.24 inHg , 1024 hPa
Clouds: Clear
Visibility: 10 miles , 16 km
2021/03/01 00:56 KNJK 010056Z AUTO 33008KT 10SM CLR 19/M21 A3024 RMK AO2 SLP255 T01891206 $
 
KAJO - Corona Muni, California, USA
Distance from station: NNW 82mi, 132km
Updated: Sun, 28-Feb-2021 4:56pm PST
Clear
Clear
 
Temperature: 66°F , 19°C
Dew Point: 9°F , -13°C
Humidity: 10%
Clouds: Clear
Visibility: 10 miles , 16 km
2021/03/01 00:56 KAJO 010056Z AUTO 10SM CLR 19/M13 RMK AO2 SLPNO T01941133 $